sensor_id;sensor_type;location;lat;lon;timestamp;pressure;altitude;pressure_sealevel;temperature;humidity
13974;BME280;7060;43.770;4.008;2022-12-18T00:00:07;102005.56;;;-1.39;70.13
13974;BME280;7060;43.770;4.008;2022-12-18T00:02:45;102004.78;;;-1.43;70.21
13974;BME280;7060;43.770;4.008;2022-12-18T00:05:14;102008.41;;;-1.48;70.29
13974;BME280;7060;43.770;4.008;2022-12-18T00:07:42;102005.75;;;-1.47;69.77
13974;BME280;7060;43.770;4.008;2022-12-18T00:10:11;101997.88;;;-1.47;69.86
13974;BME280;7060;43.770;4.008;2022-12-18T00:12:41;102005.84;;;-1.50;69.79
13974;BME280;7060;43.770;4.008;2022-12-18T00:15:09;102000.69;;;-1.54;69.17
13974;BME280;7060;43.770;4.008;2022-12-18T00:17:37;102006.00;;;-1.56;69.86
13974;BME280;7060;43.770;4.008;2022-12-18T00:20:08;102004.28;;;-1.57;69.66
13974;BME280;7060;43.770;4.008;2022-12-18T00:22:37;102004.47;;;-1.64;69.54
13974;BME280;7060;43.770;4.008;2022-12-18T00:25:06;102005.34;;;-1.65;70.36
13974;BME280;7060;43.770;4.008;2022-12-18T00:27:34;102014.94;;;-1.64;70.10
13974;BME280;7060;43.770;4.008;2022-12-18T00:30:03;102022.91;;;-1.69;70.08
13974;BME280;7060;43.770;4.008;2022-12-18T00:32:32;102019.38;;;-1.66;70.15
13974;BME280;7060;43.770;4.008;2022-12-18T00:35:01;102012.41;;;-1.67;70.51
13974;BME280;7060;43.770;4.008;2022-12-18T00:37:33;101850.34;;;-2.58;70.52
13974;BME280;7060;43.770;4.008;2022-12-18T00:40:01;102020.19;;;-1.64;69.83
13974;BME280;7060;43.770;4.008;2022-12-18T00:42:30;102027.16;;;-1.63;70.33
13974;BME280;7060;43.770;4.008;2022-12-18T00:45:16;102020.25;;;-1.67;70.32
13974;BME280;7060;43.770;4.008;2022-12-18T00:47:45;102017.78;;;-1.74;70.15
13974;BME280;7060;43.770;4.008;2022-12-18T00:50:14;102021.25;;;-1.73;70.23
13974;BME280;7060;43.770;4.008;2022-12-18T00:52:44;102025.53;;;-1.69;70.13
13974;BME280;7060;43.770;4.008;2022-12-18T00:55:13;102021.13;;;-1.67;70.72
13974;BME280;7060;43.770;4.008;2022-12-18T00:57:41;101888.38;;;-2.42;70.81
13974;BME280;7060;43.770;4.008;2022-12-18T01:00:13;102036.50;;;-1.53;70.56
13974;BME280;7060;43.770;4.008;2022-12-18T01:02:42;102033.03;;;-1.54;70.94
13974;BME280;7060;43.770;4.008;2022-12-18T01:05:13;102042.66;;;-1.54;70.76
13974;BME280;7060;43.770;4.008;2022-12-18T01:07:42;102045.41;;;-1.59;70.57
13974;BME280;7060;43.770;4.008;2022-12-18T01:10:13;102044.69;;;-1.65;70.36
13974;BME280;7060;43.770;4.008;2022-12-18T01:12:42;102044.84;;;-1.73;70.57
13974;BME280;7060;43.770;4.008;2022-12-18T01:15:13;102056.09;;;-1.68;70.69
13974;BME280;7060;43.770;4.008;2022-12-18T01:17:42;102070.91;;;-1.65;70.86
13974;BME280;7060;43.770;4.008;2022-12-18T01:20:12;102077.09;;;-1.68;70.87
13974;BME280;7060;43.770;4.008;2022-12-18T01:22:41;102073.56;;;-1.67;71.16
13974;BME280;7060;43.770;4.008;2022-12-18T01:25:09;102078.88;;;-1.70;70.66
13974;BME280;7060;43.770;4.008;2022-12-18T01:27:39;102082.34;;;-1.70;71.00
13974;BME280;7060;43.770;4.008;2022-12-18T01:30:08;102089.38;;;-1.70;70.84
13974;BME280;7060;43.770;4.008;2022-12-18T01:32:37;102093.84;;;-1.75;70.79
13974;BME280;7060;43.770;4.008;2022-12-18T01:35:06;102093.84;;;-1.75;70.73
13974;BME280;7060;43.770;4.008;2022-12-18T01:37:35;102095.63;;;-1.77;70.72
13974;BME280;7060;43.770;4.008;2022-12-18T01:40:04;102102.66;;;-1.79;71.81
13974;BME280;7060;43.770;4.008;2022-12-18T01:42:33;102105.28;;;-1.79;71.57
13974;BME280;7060;43.770;4.008;2022-12-18T01:45:22;102110.41;;;-1.73;71.47
13974;BME280;7060;43.770;4.008;2022-12-18T01:47:56;101961.09;;;-2.55;71.28
13974;BME280;7060;43.770;4.008;2022-12-18T01:50:30;102129.63;;;-1.73;71.15
13974;BME280;7060;43.770;4.008;2022-12-18T01:53:03;102075.78;;;-1.87;71.57
13974;BME280;7060;43.770;4.008;2022-12-18T01:55:36;102116.31;;;-1.63;71.36
13974;BME280;7060;43.770;4.008;2022-12-18T01:58:06;102117.97;;;-1.59;71.71
13974;BME280;7060;43.770;4.008;2022-12-18T02:00:36;102120.41;;;-1.52;71.88
13974;BME280;7060;43.770;4.008;2022-12-18T02:03:04;102116.00;;;-1.50;72.21
13974;BME280;7060;43.770;4.008;2022-12-18T02:05:44;102117.75;;;-1.50;71.81
13974;BME280;7060;43.770;4.008;2022-12-18T02:08:20;102084.94;;;-1.68;71.87
13974;BME280;7060;43.770;4.008;2022-12-18T02:10:56;102110.00;;;-1.55;71.57
13974;BME280;7060;43.770;4.008;2022-12-18T02:13:36;102115.16;;;-1.52;71.49
13974;BME280;7060;43.770;4.008;2022-12-18T02:16:19;102090.25;;;-1.71;71.43
13974;BME280;7060;43.770;4.008;2022-12-18T02:18:53;102084.25;;;-1.76;71.54
13974;BME280;7060;43.770;4.008;2022-12-18T02:21:30;102113.63;;;-1.60;71.00
13974;BME280;7060;43.770;4.008;2022-12-18T02:24:15;102125.94;;;-1.64;70.63
13974;BME280;7060;43.770;4.008;2022-12-18T02:26:48;102114.69;;;-1.69;70.80
13974;BME280;7060;43.770;4.008;2022-12-18T02:29:23;102120.09;;;-1.77;70.11
13974;BME280;7060;43.770;4.008;2022-12-18T02:31:56;102115.88;;;-1.82;70.48
13974;BME280;7060;43.770;4.008;2022-12-18T02:34:28;102064.19;;;-2.16;71.52
13974;BME280;7060;43.770;4.008;2022-12-18T02:36:59;102123.63;;;-1.79;71.25
13974;BME280;7060;43.770;4.008;2022-12-18T02:39:33;102064.75;;;-2.03;71.59
13974;BME280;7060;43.770;4.008;2022-12-18T02:42:05;102116.56;;;-1.76;71.09
13974;BME280;7060;43.770;4.008;2022-12-18T02:44:35;102013.19;;;-2.41;71.54
13974;BME280;7060;43.770;4.008;2022-12-18T02:47:11;102120.91;;;-1.73;71.62
13974;BME280;7060;43.770;4.008;2022-12-18T02:49:49;102105.25;;;-1.78;71.49
13974;BME280;7060;43.770;4.008;2022-12-18T02:52:28;102126.16;;;-1.75;71.36
13974;BME280;7060;43.770;4.008;2022-12-18T02:55:12;102132.31;;;-1.76;71.61
13974;BME280;7060;43.770;4.008;2022-12-18T02:57:50;102145.31;;;-1.71;71.57
13974;BME280;7060;43.770;4.008;2022-12-18T03:00:29;102138.38;;;-1.74;71.36
13974;BME280;7060;43.770;4.008;2022-12-18T03:03:05;102111.63;;;-1.88;71.31
13974;BME280;7060;43.770;4.008;2022-12-18T03:05:38;102153.16;;;-1.70;70.84
13974;BME280;7060;43.770;4.008;2022-12-18T03:08:13;102122.22;;;-1.94;70.97
13974;BME280;7060;43.770;4.008;2022-12-18T03:10:51;102159.47;;;-1.80;71.39
13974;BME280;7060;43.770;4.008;2022-12-18T03:13:28;102129.38;;;-2.02;70.92
13974;BME280;7060;43.770;4.008;2022-12-18T03:16:00;102173.66;;;-1.88;70.58
13974;BME280;7060;43.770;4.008;2022-12-18T03:18:33;102171.03;;;-1.88;70.53
13974;BME280;7060;43.770;4.008;2022-12-18T03:21:06;101998.47;;;-2.90;71.38
13974;BME280;7060;43.770;4.008;2022-12-18T03:23:40;102173.59;;;-1.85;71.32
13974;BME280;7060;43.770;4.008;2022-12-18T03:26:15;102169.22;;;-1.85;70.94
13974;BME280;7060;43.770;4.008;2022-12-18T03:28:51;102177.06;;;-1.83;71.12
13974;BME280;7060;43.770;4.008;2022-12-18T03:31:22;102133.75;;;-2.03;71.82
13974;BME280;7060;43.770;4.008;2022-12-18T03:33:53;102171.66;;;-1.77;71.46
13974;BME280;7060;43.770;4.008;2022-12-18T03:36:30;102171.66;;;-1.77;72.05
13974;BME280;7060;43.770;4.008;2022-12-18T03:38:58;102173.34;;;-1.73;72.20
13974;BME280;7060;43.770;4.008;2022-12-18T03:41:30;102144.88;;;-1.91;72.06
13974;BME280;7060;43.770;4.008;2022-12-18T03:44:29;102172.59;;;-1.80;72.72
13974;BME280;7060;43.770;4.008;2022-12-18T03:47:05;102178.56;;;-1.73;72.18
13974;BME280;7060;43.770;4.008;2022-12-18T03:49:39;102175.13;;;-1.75;72.45
13974;BME280;7060;43.770;4.008;2022-12-18T03:52:16;102140.59;;;-1.95;72.07
13974;BME280;7060;43.770;4.008;2022-12-18T03:54:46;102172.50;;;-1.75;72.73
13974;BME280;7060;43.770;4.008;2022-12-18T03:57:19;102093.94;;;-2.20;72.70
13974;BME280;7060;43.770;4.008;2022-12-18T03:59:56;102168.09;;;-1.73;72.57
13974;BME280;7060;43.770;4.008;2022-12-18T04:02:43;102172.41;;;-1.71;72.50
13974;BME280;7060;43.770;4.008;2022-12-18T04:05:20;102176.84;;;-1.74;72.51
13974;BME280;7060;43.770;4.008;2022-12-18T04:07:49;102174.13;;;-1.70;72.84
13974;BME280;7060;43.770;4.008;2022-12-18T04:10:21;102176.75;;;-1.70;72.75
13974;BME280;7060;43.770;4.008;2022-12-18T04:12:49;102182.03;;;-1.71;72.90
13974;BME280;7060;43.770;4.008;2022-12-18T04:15:20;102184.63;;;-1.70;72.81
13974;BME280;7060;43.770;4.008;2022-12-18T04:17:50;102126.66;;;-1.97;72.66
13974;BME280;7060;43.770;4.008;2022-12-18T04:20:22;102171.56;;;-1.73;72.87
13974;BME280;7060;43.770;4.008;2022-12-18T04:22:50;102151.63;;;-1.80;73.00
13974;BME280;7060;43.770;4.008;2022-12-18T04:25:19;102164.50;;;-1.69;72.90
13974;BME280;7060;43.770;4.008;2022-12-18T04:28:04;102177.59;;;-1.67;73.34
13974;BME280;7060;43.770;4.008;2022-12-18T04:30:35;102182.72;;;-1.61;73.64
13974;BME280;7060;43.770;4.008;2022-12-18T04:33:08;102186.97;;;-1.56;72.85
13974;BME280;7060;43.770;4.008;2022-12-18T04:35:38;102188.88;;;-1.64;72.79
13974;BME280;7060;43.770;4.008;2022-12-18T04:38:07;102176.97;;;-1.80;72.81
13974;BME280;7060;43.770;4.008;2022-12-18T04:40:37;102192.59;;;-1.76;72.81
13974;BME280;7060;43.770;4.008;2022-12-18T04:43:15;102203.06;;;-1.74;72.13
13974;BME280;7060;43.770;4.008;2022-12-18T04:45:44;102204.88;;;-1.78;71.87
13974;BME280;7060;43.770;4.008;2022-12-18T04:48:13;102206.78;;;-1.84;71.87
13974;BME280;7060;43.770;4.008;2022-12-18T04:50:41;102196.38;;;-1.87;72.22
13974;BME280;7060;43.770;4.008;2022-12-18T04:53:09;102202.47;;;-1.87;71.99
13974;BME280;7060;43.770;4.008;2022-12-18T04:55:38;102206.06;;;-1.92;71.94
13974;BME280;7060;43.770;4.008;2022-12-18T04:58:06;102206.94;;;-1.92;72.88
13974;BME280;7060;43.770;4.008;2022-12-18T05:00:35;102206.94;;;-1.92;72.86
13974;BME280;7060;43.770;4.008;2022-12-18T05:03:05;102206.84;;;-1.87;72.53
13974;BME280;7060;43.770;4.008;2022-12-18T05:05:34;102206.78;;;-1.84;72.80
13974;BME280;7060;43.770;4.008;2022-12-18T05:08:03;102220.81;;;-1.87;72.78
13974;BME280;7060;43.770;4.008;2022-12-18T05:10:32;102224.25;;;-1.83;72.63
13974;BME280;7060;43.770;4.008;2022-12-18T05:13:04;102215.53;;;-1.85;72.54
13974;BME280;7060;43.770;4.008;2022-12-18T05:15:33;102213.06;;;-1.93;72.78
13974;BME280;7060;43.770;4.008;2022-12-18T05:18:02;102213.06;;;-1.93;72.52
13974;BME280;7060;43.770;4.008;2022-12-18T05:20:32;102214.78;;;-1.92;73.14
13974;BME280;7060;43.770;4.008;2022-12-18T05:23:01;102218.19;;;-1.87;73.41
13974;BME280;7060;43.770;4.008;2022-12-18T05:25:30;102216.41;;;-1.85;72.97
13974;BME280;7060;43.770;4.008;2022-12-18T05:27:58;102216.53;;;-1.91;73.04
13974;BME280;7060;43.770;4.008;2022-12-18T05:30:26;102213.88;;;-1.89;73.48
13974;BME280;7060;43.770;4.008;2022-12-18T05:32:55;102211.06;;;-1.80;73.04
13974;BME280;7060;43.770;4.008;2022-12-18T05:35:23;102205.69;;;-1.74;72.83
13974;BME280;7060;43.770;4.008;2022-12-18T05:37:54;102199.50;;;-1.70;72.95
13974;BME280;7060;43.770;4.008;2022-12-18T05:40:22;102209.84;;;-1.64;73.07
13974;BME280;7060;43.770;4.008;2022-12-18T05:42:50;102204.66;;;-1.65;72.97
13974;BME280;7060;43.770;4.008;2022-12-18T05:45:19;102209.91;;;-1.67;73.08
13974;BME280;7060;43.770;4.008;2022-12-18T05:47:47;102205.56;;;-1.68;73.15
13974;BME280;7060;43.770;4.008;2022-12-18T05:50:15;102197.75;;;-1.71;73.17
13974;BME280;7060;43.770;4.008;2022-12-18T05:52:44;102203.06;;;-1.74;72.93
13974;BME280;7060;43.770;4.008;2022-12-18T05:55:13;102211.81;;;-1.75;73.24
13974;BME280;7060;43.770;4.008;2022-12-18T05:57:42;102210.13;;;-1.78;73.39
13974;BME280;7060;43.770;4.008;2022-12-18T06:00:11;102213.59;;;-1.76;73.01
13974;BME280;7060;43.770;4.008;2022-12-18T06:02:40;102217.28;;;-1.84;72.90
13974;BME280;7060;43.770;4.008;2022-12-18T06:05:08;102217.19;;;-1.81;72.61
13974;BME280;7060;43.770;4.008;2022-12-18T06:07:37;102223.38;;;-1.84;73.09
13974;BME280;7060;43.770;4.008;2022-12-18T06:10:06;102232.06;;;-1.82;72.97
13974;BME280;7060;43.770;4.008;2022-12-18T06:12:36;102243.34;;;-1.78;73.23
13974;BME280;7060;43.770;4.008;2022-12-18T06:15:05;102254.75;;;-1.81;73.41
13974;BME280;7060;43.770;4.008;2022-12-18T06:17:34;102253.88;;;-1.81;73.25
13974;BME280;7060;43.770;4.008;2022-12-18T06:20:03;102267.06;;;-1.83;73.47
13974;BME280;7060;43.770;4.008;2022-12-18T06:22:31;102270.53;;;-1.82;73.50
13974;BME280;7060;43.770;4.008;2022-12-18T06:25:00;102256.47;;;-1.80;73.09
13974;BME280;7060;43.770;4.008;2022-12-18T06:27:28;102264.25;;;-1.75;72.74
13974;BME280;7060;43.770;4.008;2022-12-18T06:29:58;102259.94;;;-1.78;72.81
13974;BME280;7060;43.770;4.008;2022-12-18T06:32:27;102266.09;;;-1.80;73.10
13974;BME280;7060;43.770;4.008;2022-12-18T06:34:55;102264.38;;;-1.81;73.47
13974;BME280;7060;43.770;4.008;2022-12-18T06:37:23;102264.34;;;-1.80;73.04
13974;BME280;7060;43.770;4.008;2022-12-18T06:39:53;102269.50;;;-1.75;72.92
13974;BME280;7060;43.770;4.008;2022-12-18T06:42:21;102278.41;;;-1.82;73.32
13974;BME280;7060;43.770;4.008;2022-12-18T06:44:49;102278.53;;;-1.90;72.95
13974;BME280;7060;43.770;4.008;2022-12-18T06:47:19;102295.06;;;-1.85;72.54
13974;BME280;7060;43.770;4.008;2022-12-18T06:49:47;102303.06;;;-1.92;72.62
13974;BME280;7060;43.770;4.008;2022-12-18T06:52:17;102302.31;;;-2.00;72.98
13974;BME280;7060;43.770;4.008;2022-12-18T06:54:45;102292.81;;;-2.08;72.77
13974;BME280;7060;43.770;4.008;2022-12-18T06:57:14;102314.59;;;-2.04;72.40
13974;BME280;7060;43.770;4.008;2022-12-18T06:59:42;102320.69;;;-2.02;72.61
13974;BME280;7060;43.770;4.008;2022-12-18T07:02:11;102321.56;;;-2.02;72.55
13974;BME280;7060;43.770;4.008;2022-12-18T07:04:41;102319.75;;;-1.98;73.09
13974;BME280;7060;43.770;4.008;2022-12-18T07:07:09;102325.78;;;-1.93;73.36
13974;BME280;7060;43.770;4.008;2022-12-18T07:09:37;102319.59;;;-1.89;72.50
13974;BME280;7060;43.770;4.008;2022-12-18T07:12:06;102325.69;;;-1.88;72.23
13974;BME280;7060;43.770;4.008;2022-12-18T07:14:34;102341.44;;;-1.88;72.36
13974;BME280;7060;43.770;4.008;2022-12-18T07:17:03;102334.44;;;-1.89;72.27
13974;BME280;7060;43.770;4.008;2022-12-18T07:19:32;102348.44;;;-1.90;72.00
13974;BME280;7060;43.770;4.008;2022-12-18T07:22:02;102354.59;;;-1.93;72.00
13974;BME280;7060;43.770;4.008;2022-12-18T07:24:32;102318.25;;;-2.11;72.06
13974;BME280;7060;43.770;4.008;2022-12-18T07:27:01;102345.84;;;-1.92;72.18
13974;BME280;7060;43.770;4.008;2022-12-18T07:29:30;102346.69;;;-1.90;72.31
13974;BME280;7060;43.770;4.008;2022-12-18T07:31:58;102357.97;;;-1.85;72.51
13974;BME280;7060;43.770;4.008;2022-12-18T07:34:27;102360.44;;;-1.77;73.14
13974;BME280;7060;43.770;4.008;2022-12-18T07:36:55;102349.88;;;-1.74;73.37
13974;BME280;7060;43.770;4.008;2022-12-18T07:39:25;102362.75;;;-1.60;72.68
13974;BME280;7060;43.770;4.008;2022-12-18T07:41:53;102358.31;;;-1.57;73.49
13974;BME280;7060;43.770;4.008;2022-12-18T07:44:35;102328.03;;;-1.73;73.67
13974;BME280;7060;43.770;4.008;2022-12-18T07:47:04;102349.59;;;-1.57;73.87
13974;BME280;7060;43.770;4.008;2022-12-18T07:49:38;102353.00;;;-1.54;74.63
13974;BME280;7060;43.770;4.008;2022-12-18T07:52:06;102351.13;;;-1.47;74.70
13974;BME280;7060;43.770;4.008;2022-12-18T07:54:36;102354.38;;;-1.35;74.31
13974;BME280;7060;43.770;4.008;2022-12-18T07:57:04;102356.91;;;-1.28;73.98
13974;BME280;7060;43.770;4.008;2022-12-18T07:59:53;102353.25;;;-1.23;74.22
13974;BME280;7060;43.770;4.008;2022-12-18T08:02:21;102345.19;;;-1.12;74.08
13974;BME280;7060;43.770;4.008;2022-12-18T08:04:49;102351.97;;;-1.02;73.94
13974;BME280;7060;43.770;4.008;2022-12-18T08:07:18;102349.25;;;-0.99;74.35
13974;BME280;7060;43.770;4.008;2022-12-18T08:09:47;102347.22;;;-0.85;74.05
13974;BME280;7060;43.770;4.008;2022-12-18T08:12:16;102350.38;;;-0.71;74.22
13974;BME280;7060;43.770;4.008;2022-12-18T08:14:45;102351.03;;;-0.61;73.81
13974;BME280;7060;43.770;4.008;2022-12-18T08:17:14;102355.22;;;-0.52;74.07
13974;BME280;7060;43.770;4.008;2022-12-18T08:19:42;102349.84;;;-0.46;74.16
13974;BME280;7060;43.770;4.008;2022-12-18T08:22:10;102346.97;;;-0.37;74.11
13974;BME280;7060;43.770;4.008;2022-12-18T08:24:38;102348.47;;;-0.25;74.13
13974;BME280;7060;43.770;4.008;2022-12-18T08:27:08;102343.78;;;-0.14;74.29
13974;BME280;7060;43.770;4.008;2022-12-18T08:29:55;102343.56;;;-0.05;74.10
13974;BME280;7060;43.770;4.008;2022-12-18T08:32:24;102346.81;;;0.05;74.44
13974;BME280;7060;43.770;4.008;2022-12-18T08:34:52;102357.91;;;0.16;74.02
13974;BME280;7060;43.770;4.008;2022-12-18T08:37:20;102356.97;;;0.18;74.66
13974;BME280;7060;43.770;4.008;2022-12-18T08:39:49;102368.97;;;0.30;74.61
13974;BME280;7060;43.770;4.008;2022-12-18T08:42:18;102363.47;;;0.38;74.71
13974;BME280;7060;43.770;4.008;2022-12-18T08:45:05;102365.34;;;0.34;74.86
13974;BME280;7060;43.770;4.008;2022-12-18T08:47:33;102365.16;;;0.40;74.70
13974;BME280;7060;43.770;4.008;2022-12-18T08:50:01;102368.38;;;0.51;74.55
13974;BME280;7060;43.770;4.008;2022-12-18T08:52:31;102335.38;;;0.38;74.58
13974;BME280;7060;43.770;4.008;2022-12-18T08:55:00;102372.34;;;0.66;74.52
13974;BME280;7060;43.770;4.008;2022-12-18T08:57:29;102371.34;;;0.70;74.42
13974;BME280;7060;43.770;4.008;2022-12-18T08:59:58;102383.66;;;0.69;74.59
13974;BME280;7060;43.770;4.008;2022-12-18T09:02:26;102387.06;;;0.73;75.03
13974;BME280;7060;43.770;4.008;2022-12-18T09:04:55;102379.78;;;0.83;75.13
13974;BME280;7060;43.770;4.008;2022-12-18T09:07:23;102379.50;;;0.92;74.89
13974;BME280;7060;43.770;4.008;2022-12-18T09:09:52;102380.16;;;1.00;75.02
13974;BME280;7060;43.770;4.008;2022-12-18T09:12:20;102386.03;;;1.10;75.13
13974;BME280;7060;43.770;4.008;2022-12-18T09:14:49;102378.69;;;1.19;74.88
13974;BME280;7060;43.770;4.008;2022-12-18T09:17:18;102378.50;;;1.25;74.82
13974;BME280;7060;43.770;4.008;2022-12-18T09:19:46;102379.41;;;1.24;75.07
13974;BME280;7060;43.770;4.008;2022-12-18T09:22:14;102376.44;;;1.36;74.80
13974;BME280;7060;43.770;4.008;2022-12-18T09:24:43;102373.56;;;1.44;75.30
13974;BME280;7060;43.770;4.008;2022-12-18T09:27:11;102384.75;;;1.51;75.11
13974;BME280;7060;43.770;4.008;2022-12-18T09:29:39;102374.03;;;1.57;75.36
13974;BME280;7060;43.770;4.008;2022-12-18T09:32:09;102381.72;;;1.64;75.08
13974;BME280;7060;43.770;4.008;2022-12-18T09:34:41;102399.72;;;1.78;74.51
13974;BME280;7060;43.770;4.008;2022-12-18T09:37:09;102409.19;;;1.84;74.63
13974;BME280;7060;43.770;4.008;2022-12-18T09:39:38;102408.09;;;1.91;74.62
13974;BME280;7060;43.770;4.008;2022-12-18T09:42:16;102279.31;;;1.24;74.35
13974;BME280;7060;43.770;4.008;2022-12-18T09:44:50;102374.81;;;1.87;74.52
13974;BME280;7060;43.770;4.008;2022-12-18T09:47:23;102396.06;;;2.09;73.96
13974;BME280;7060;43.770;4.008;2022-12-18T09:49:56;102251.03;;;1.29;73.52
13974;BME280;7060;43.770;4.008;2022-12-18T09:52:28;102397.41;;;2.22;73.87
13974;BME280;7060;43.770;4.008;2022-12-18T09:55:03;102318.19;;;1.72;73.94
13974;BME280;7060;43.770;4.008;2022-12-18T09:57:39;102397.94;;;2.31;73.54
13974;BME280;7060;43.770;4.008;2022-12-18T10:00:15;102371.13;;;2.19;74.39
13974;BME280;7060;43.770;4.008;2022-12-18T10:02:46;102410.06;;;2.37;74.62
13974;BME280;7060;43.770;4.008;2022-12-18T10:05:17;102416.16;;;2.39;74.58
13974;BME280;7060;43.770;4.008;2022-12-18T10:07:53;102269.59;;;1.53;74.64
13974;BME280;7060;43.770;4.008;2022-12-18T10:10:31;102394.56;;;2.28;73.90
13974;BME280;7060;43.770;4.008;2022-12-18T10:13:08;102310.00;;;1.80;74.29
13974;BME280;7060;43.770;4.008;2022-12-18T10:15:47;102441.06;;;2.57;73.75
13974;BME280;7060;43.770;4.008;2022-12-18T10:18:30;102414.22;;;2.44;73.94
13974;BME280;7060;43.770;4.008;2022-12-18T10:21:05;102404.28;;;2.52;74.22
13974;BME280;7060;43.770;4.008;2022-12-18T10:23:42;102430.72;;;2.76;73.75
13974;BME280;7060;43.770;4.008;2022-12-18T10:26:15;102440.31;;;2.78;73.45
13974;BME280;7060;43.770;4.008;2022-12-18T10:28:44;102432.16;;;2.84;74.13
13974;BME280;7060;43.770;4.008;2022-12-18T10:31:15;102430.16;;;2.91;74.46
13974;BME280;7060;43.770;4.008;2022-12-18T10:33:46;102423.84;;;2.95;73.57
13974;BME280;7060;43.770;4.008;2022-12-18T10:36:14;102439.66;;;2.96;73.65
13974;BME280;7060;43.770;4.008;2022-12-18T10:38:43;102432.47;;;3.00;74.26
13974;BME280;7060;43.770;4.008;2022-12-18T10:41:24;102418.13;;;3.07;73.86
13974;BME280;7060;43.770;4.008;2022-12-18T10:44:12;102410.88;;;3.12;74.26
13974;BME280;7060;43.770;4.008;2022-12-18T10:46:40;102413.41;;;3.15;74.44
13974;BME280;7060;43.770;4.008;2022-12-18T10:49:22;102419.38;;;3.20;73.68
13974;BME280;7060;43.770;4.008;2022-12-18T10:51:51;102409.50;;;3.25;74.27
13974;BME280;7060;43.770;4.008;2022-12-18T10:54:37;102396.94;;;3.32;73.94
13974;BME280;7060;43.770;4.008;2022-12-18T10:57:17;102394.81;;;3.40;73.86
13974;BME280;7060;43.770;4.008;2022-12-18T10:59:51;102231.06;;;2.48;73.88
13974;BME280;7060;43.770;4.008;2022-12-18T11:02:27;102380.56;;;3.44;74.86
13974;BME280;7060;43.770;4.008;2022-12-18T11:04:57;102401.59;;;3.47;74.36
13974;BME280;7060;43.770;4.008;2022-12-18T11:07:46;102401.56;;;3.49;75.10
13974;BME280;7060;43.770;4.008;2022-12-18T11:10:16;102379.16;;;3.35;75.06
13974;BME280;7060;43.770;4.008;2022-12-18T11:12:45;102409.81;;;3.63;74.77
13974;BME280;7060;43.770;4.008;2022-12-18T11:15:16;102378.03;;;3.64;75.05
13974;BME280;7060;43.770;4.008;2022-12-18T11:17:48;102382.06;;;3.73;75.06
13974;BME280;7060;43.770;4.008;2022-12-18T11:20:29;102392.41;;;3.79;74.53
13974;BME280;7060;43.770;4.008;2022-12-18T11:23:00;102396.84;;;3.79;75.00
13974;BME280;7060;43.770;4.008;2022-12-18T11:25:29;102394.00;;;3.83;75.07
13974;BME280;7060;43.770;4.008;2022-12-18T11:28:03;102393.69;;;3.91;74.74
13974;BME280;7060;43.770;4.008;2022-12-18T11:30:33;102385.44;;;3.98;74.52
13974;BME280;7060;43.770;4.008;2022-12-18T11:33:05;102391.22;;;4.08;74.78
13974;BME280;7060;43.770;4.008;2022-12-18T11:35:42;102351.03;;;3.98;75.44
13974;BME280;7060;43.770;4.008;2022-12-18T11:38:20;102387.78;;;4.26;76.29
13974;BME280;7060;43.770;4.008;2022-12-18T11:40:56;102368.94;;;4.34;75.70
13974;BME280;7060;43.770;4.008;2022-12-18T11:43:28;102372.97;;;4.42;74.86
13974;BME280;7060;43.770;4.008;2022-12-18T11:46:02;102180.56;;;3.43;74.46
13974;BME280;7060;43.770;4.008;2022-12-18T11:48:34;102170.84;;;3.43;74.63
13974;BME280;7060;43.770;4.008;2022-12-18T11:51:13;102309.88;;;4.32;74.34
13974;BME280;7060;43.770;4.008;2022-12-18T11:53:43;102362.91;;;4.71;73.77
13974;BME280;7060;43.770;4.008;2022-12-18T11:56:26;102339.31;;;4.65;73.77
13974;BME280;7060;43.770;4.008;2022-12-18T11:59:07;102356.03;;;4.86;73.84
13974;BME280;7060;43.770;4.008;2022-12-18T12:01:45;102329.25;;;4.73;73.42
13974;BME280;7060;43.770;4.008;2022-12-18T12:04:35;102358.31;;;4.95;73.62
13974;BME280;7060;43.770;4.008;2022-12-18T12:07:18;102358.44;;;4.92;73.18
13974;BME280;7060;43.770;4.008;2022-12-18T12:09:56;102337.38;;;4.89;72.94
13974;BME280;7060;43.770;4.008;2022-12-18T12:12:39;102331.16;;;4.90;73.24
13974;BME280;7060;43.770;4.008;2022-12-18T12:15:24;102355.88;;;5.09;72.75
13974;BME280;7060;43.770;4.008;2022-12-18T12:18:01;102355.72;;;5.12;72.78
13974;BME280;7060;43.770;4.008;2022-12-18T12:20:44;102362.75;;;5.13;73.04
13974;BME280;7060;43.770;4.008;2022-12-18T12:23:22;102215.63;;;4.28;72.84
13974;BME280;7060;43.770;4.008;2022-12-18T12:25:59;102242.28;;;4.43;72.82
13974;BME280;7060;43.770;4.008;2022-12-18T12:28:46;102332.28;;;5.03;73.40
13974;BME280;7060;43.770;4.008;2022-12-18T12:31:24;102356.03;;;5.25;73.67
13974;BME280;7060;43.770;4.008;2022-12-18T12:34:01;102347.69;;;5.32;73.69
13974;BME280;7060;43.770;4.008;2022-12-18T12:36:40;102341.22;;;5.38;73.90
13974;BME280;7060;43.770;4.008;2022-12-18T12:39:19;102342.88;;;5.40;73.85
13974;BME280;7060;43.770;4.008;2022-12-18T12:41:49;102330.34;;;5.44;73.99
13974;BME280;7060;43.770;4.008;2022-12-18T12:44:39;102341.53;;;5.51;74.22
13974;BME280;7060;43.770;4.008;2022-12-18T12:47:15;102335.13;;;5.55;74.11
13974;BME280;7060;43.770;4.008;2022-12-18T12:49:46;102329.50;;;5.61;73.72
13974;BME280;7060;43.770;4.008;2022-12-18T12:52:23;102333.59;;;5.68;73.73
13974;BME280;7060;43.770;4.008;2022-12-18T12:54:56;102322.75;;;5.72;73.76
13974;BME280;7060;43.770;4.008;2022-12-18T12:57:31;102327.84;;;5.77;73.37
13974;BME280;7060;43.770;4.008;2022-12-18T13:00:05;102155.56;;;4.85;72.97
13974;BME280;7060;43.770;4.008;2022-12-18T13:02:42;102323.75;;;5.87;72.80
13974;BME280;7060;43.770;4.008;2022-12-18T13:05:19;102325.25;;;5.93;72.66
13974;BME280;7060;43.770;4.008;2022-12-18T13:07:51;102311.84;;;5.96;72.45
13974;BME280;7060;43.770;4.008;2022-12-18T13:10:31;102284.28;;;5.81;71.71
13974;BME280;7060;43.770;4.008;2022-12-18T13:13:03;102323.88;;;6.03;71.71
13974;BME280;7060;43.770;4.008;2022-12-18T13:15:37;102320.13;;;6.07;71.71
13974;BME280;7060;43.770;4.008;2022-12-18T13:18:14;102312.88;;;6.10;71.55
13974;BME280;7060;43.770;4.008;2022-12-18T13:20:44;102317.13;;;6.13;71.65
13974;BME280;7060;43.770;4.008;2022-12-18T13:23:29;102311.81;;;6.13;71.21
13974;BME280;7060;43.770;4.008;2022-12-18T13:26:32;102315.97;;;6.19;71.70
13974;BME280;7060;43.770;4.008;2022-12-18T13:29:01;102302.13;;;6.12;71.81
13974;BME280;7060;43.770;4.008;2022-12-18T13:34:36;102312.13;;;6.24;71.86